createdAt,value
2019-03-17T00:01:12.479Z,11.00
2019-03-17T00:04:02.195Z,11.10
2019-03-17T00:06:52.197Z,11.10
2019-03-17T00:09:42.065Z,11.20
2019-03-17T00:12:31.725Z,11.20
2019-03-17T00:15:21.916Z,11.20
2019-03-17T00:18:11.927Z,11.10
2019-03-17T00:21:02.024Z,11.20
2019-03-17T00:23:52.139Z,11.10
2019-03-17T00:26:41.831Z,11.20
2019-03-17T00:29:31.643Z,11.20
2019-03-17T00:32:21.225Z,11.20
2019-03-17T00:35:10.929Z,11.30
2019-03-17T00:38:00.873Z,11.30
2019-03-17T00:40:50.804Z,11.30
2019-03-17T00:43:40.743Z,11.30
2019-03-17T00:46:30.736Z,11.40
2019-03-17T00:49:20.493Z,11.40
2019-03-17T00:52:10.259Z,11.30
2019-03-17T00:55:00.061Z,11.40
2019-03-17T00:57:52.144Z,11.50
2019-03-17T01:00:42.571Z,11.60
2019-03-17T01:03:32.063Z,11.50
2019-03-17T01:06:21.742Z,11.50
2019-03-17T01:09:11.122Z,11.40
2019-03-17T01:12:01.067Z,11.40
2019-03-17T01:14:50.983Z,11.50
2019-03-17T01:17:40.633Z,11.50
2019-03-17T01:20:30.784Z,11.40
2019-03-17T01:23:20.444Z,11.40
2019-03-17T01:26:11.249Z,11.40
2019-03-17T01:29:01.208Z,11.40
2019-03-17T01:31:51.093Z,11.40
2019-03-17T01:34:40.485Z,11.40
2019-03-17T01:37:30.457Z,11.30
2019-03-17T01:40:20.542Z,11.30
2019-03-17T01:43:10.292Z,11.30
2019-03-17T01:46:00.101Z,11.30
2019-03-17T01:48:49.547Z,11.30
2019-03-17T01:51:39.655Z,11.30
2019-03-17T01:54:29.326Z,11.30
2019-03-17T01:57:19.055Z,11.20
2019-03-17T02:00:09.190Z,11.20
2019-03-17T02:02:58.960Z,11.10
2019-03-17T02:05:49.157Z,11.10
2019-03-17T02:08:39.040Z,11.10
2019-03-17T02:11:28.802Z,11.00
2019-03-17T02:14:18.936Z,11.00
2019-03-17T02:17:09.183Z,11.00
2019-03-17T02:19:58.981Z,11.00
2019-03-17T02:22:48.962Z,10.90
2019-03-17T02:25:39.800Z,11.00
2019-03-17T02:28:29.742Z,10.90
2019-03-17T02:31:22.717Z,10.90
2019-03-17T02:34:12.506Z,10.90
2019-03-17T02:37:02.664Z,10.80
2019-03-17T02:39:52.361Z,10.80
2019-03-17T02:42:42.557Z,10.80
2019-03-17T02:45:32.248Z,10.80
2019-03-17T02:48:22.117Z,10.80
2019-03-17T02:51:12.096Z,10.70
2019-03-17T02:54:01.796Z,10.70
2019-03-17T02:56:51.995Z,10.70
2019-03-17T02:59:42.287Z,10.80
2019-03-17T03:02:32.004Z,10.80
2019-03-17T03:05:21.995Z,10.90
2019-03-17T03:08:11.618Z,10.80
2019-03-17T03:11:01.455Z,10.80
2019-03-17T03:13:51.286Z,10.90
2019-03-17T03:16:41.316Z,10.90
2019-03-17T03:19:31.339Z,10.90
2019-03-17T03:22:20.892Z,10.90
2019-03-17T03:25:10.978Z,10.80
2019-03-17T03:28:01.052Z,10.80
2019-03-17T03:30:50.860Z,10.80
2019-03-17T03:33:41.369Z,10.80
2019-03-17T03:36:31.047Z,10.90
2019-03-17T03:39:20.999Z,10.90
2019-03-17T03:42:10.819Z,10.80
2019-03-17T03:45:00.661Z,10.90
2019-03-17T03:47:50.083Z,10.80
2019-03-17T03:50:39.834Z,10.80
2019-03-17T03:53:29.218Z,10.90
2019-03-17T03:56:18.853Z,10.80
2019-03-17T03:59:08.996Z,10.90
2019-03-17T04:01:58.826Z,10.80
2019-03-17T04:04:48.843Z,10.70
2019-03-17T04:07:38.686Z,10.70
2019-03-17T04:10:28.584Z,10.60
2019-03-17T04:13:18.748Z,10.50
2019-03-17T04:16:08.673Z,10.50
2019-03-17T04:18:58.166Z,10.40
2019-03-17T04:21:48.331Z,10.40
2019-03-17T04:24:38.215Z,10.40
2019-03-17T04:27:28.227Z,10.30
2019-03-17T04:30:18.166Z,10.30
2019-03-17T04:33:08.043Z,10.30
2019-03-17T04:35:57.984Z,10.20
2019-03-17T04:38:47.726Z,10.20
2019-03-17T04:41:37.506Z,10.20
2019-03-17T04:44:27.035Z,10.20
2019-03-17T04:47:16.667Z,10.20
2019-03-17T04:50:07.696Z,10.20
2019-03-17T04:52:57.236Z,10.20
2019-03-17T04:55:46.983Z,10.20
2019-03-17T04:58:37.382Z,10.20
2019-03-17T05:01:27.351Z,10.10
2019-03-17T05:04:17.993Z,10.10
2019-03-17T05:07:08.161Z,10.10
2019-03-17T05:09:57.824Z,10.10
2019-03-17T05:12:47.664Z,10.10
2019-03-17T05:15:37.402Z,10.10
2019-03-17T05:18:27.384Z,10.20
2019-03-17T05:21:17.655Z,10.20
2019-03-17T05:24:07.864Z,10.20
2019-03-17T05:26:57.808Z,10.20
2019-03-17T05:29:47.371Z,10.20
2019-03-17T05:32:37.427Z,10.20
2019-03-17T05:35:27.426Z,10.20
2019-03-17T05:38:17.052Z,10.20
2019-03-17T05:41:06.561Z,10.20
2019-03-17T05:43:56.347Z,10.20
2019-03-17T05:46:46.440Z,10.20
2019-03-17T05:49:35.877Z,10.20
2019-03-17T05:52:25.996Z,10.20
2019-03-17T05:55:15.745Z,8.80
2019-03-17T05:58:05.824Z,8.10
2019-03-17T06:00:55.710Z,8.00
2019-03-17T06:03:46.412Z,8.00
2019-03-17T06:06:36.418Z,7.90
2019-03-17T06:09:26.525Z,7.90
2019-03-17T06:12:16.352Z,7.90
2019-03-17T06:15:06.604Z,7.90
2019-03-17T06:17:56.706Z,7.90
2019-03-17T06:20:46.402Z,8.00
2019-03-17T06:23:36.558Z,7.90
2019-03-17T06:26:26.025Z,7.90
2019-03-17T06:29:15.669Z,7.90
2019-03-17T06:32:05.333Z,7.90
2019-03-17T06:34:55.223Z,7.90
2019-03-17T06:37:44.902Z,7.90
2019-03-17T06:40:34.792Z,7.80
2019-03-17T06:43:25.682Z,7.80
2019-03-17T06:46:15.382Z,7.80
2019-03-17T06:49:05.144Z,7.80
2019-03-17T06:51:55.014Z,7.70
2019-03-17T06:54:45.184Z,7.60
2019-03-17T06:57:34.616Z,7.70
2019-03-17T07:00:24.345Z,7.70
2019-03-17T07:03:13.822Z,7.70
2019-03-17T07:06:03.823Z,7.70
2019-03-17T07:08:53.703Z,7.70
2019-03-17T07:11:43.415Z,7.90
2019-03-17T07:14:32.979Z,8.00
2019-03-17T07:17:22.883Z,7.90
2019-03-17T07:20:13.022Z,7.90
2019-03-17T07:23:02.514Z,7.90
2019-03-17T07:25:52.605Z,7.90
2019-03-17T07:28:42.484Z,7.90
2019-03-17T07:31:32.181Z,7.90
2019-03-17T07:34:22.254Z,7.90
2019-03-17T07:37:12.276Z,8.00
2019-03-17T07:40:01.886Z,8.00
2019-03-17T07:42:51.693Z,8.00
2019-03-17T07:45:41.138Z,8.00
2019-03-17T07:48:30.894Z,8.00
2019-03-17T07:51:20.624Z,8.00
2019-03-17T07:54:10.304Z,8.00
2019-03-17T07:56:59.874Z,8.10
2019-03-17T07:59:50.069Z,8.00
2019-03-17T08:02:41.033Z,8.00
2019-03-17T08:05:31.053Z,8.00
2019-03-17T08:08:22.110Z,7.90
2019-03-17T08:11:11.830Z,7.90
2019-03-17T08:14:01.925Z,7.70
2019-03-17T08:16:52.075Z,7.70
2019-03-17T08:19:41.816Z,7.80
2019-03-17T08:22:31.893Z,7.80
2019-03-17T08:25:22.178Z,7.90
2019-03-17T08:28:11.752Z,7.90
2019-03-17T08:31:01.691Z,8.00
2019-03-17T08:33:53.142Z,8.10
2019-03-17T08:36:43.155Z,8.10
2019-03-17T08:39:32.815Z,8.20
2019-03-17T08:42:22.901Z,8.20
2019-03-17T08:45:13.181Z,8.20
2019-03-17T08:48:02.913Z,8.20
2019-03-17T08:50:52.497Z,8.20
2019-03-17T08:53:42.945Z,8.20
2019-03-17T08:56:33.003Z,8.40
2019-03-17T08:59:22.678Z,8.40
2019-03-17T09:02:12.486Z,8.50
2019-03-17T09:05:04.158Z,8.50
2019-03-17T09:07:54.106Z,8.60
2019-03-17T09:10:43.595Z,8.60
2019-03-17T09:13:33.454Z,8.60
2019-03-17T09:16:23.031Z,8.50
2019-03-17T09:19:12.996Z,8.60
2019-03-17T09:22:03.903Z,8.60
2019-03-17T09:24:53.763Z,8.60
2019-03-17T09:27:43.481Z,8.60
2019-03-17T09:30:33.265Z,8.60
2019-03-17T09:33:23.255Z,8.60
2019-03-17T09:36:13.446Z,8.60
2019-03-17T09:39:04.266Z,8.60
2019-03-17T09:41:54.535Z,8.50
2019-03-17T09:44:44.699Z,8.50
2019-03-17T09:47:34.547Z,8.50
2019-03-17T09:50:24.151Z,8.50
2019-03-17T09:53:13.832Z,8.50
2019-03-17T09:56:03.524Z,8.50
2019-03-17T09:58:53.409Z,8.60
2019-03-17T10:01:43.202Z,8.70
2019-03-17T10:04:32.712Z,8.80
2019-03-17T10:07:22.323Z,8.90
2019-03-17T10:10:13.353Z,9.10
2019-03-17T10:13:03.145Z,9.30
2019-03-17T10:15:52.885Z,9.50
2019-03-17T10:18:42.602Z,9.30
2019-03-17T10:21:32.743Z,9.30
2019-03-17T10:24:23.966Z,9.20
2019-03-17T10:27:14.074Z,9.40
2019-03-17T10:30:04.192Z,9.60
2019-03-17T10:32:54.329Z,9.60
2019-03-17T10:35:44.232Z,9.90
2019-03-17T10:38:34.058Z,9.70
2019-03-17T10:41:23.701Z,9.70
2019-03-17T10:44:13.375Z,9.80
2019-03-17T10:47:03.549Z,9.70
2019-03-17T10:49:53.515Z,9.90
2019-03-17T10:52:43.349Z,10.00
2019-03-17T10:55:33.232Z,10.30
2019-03-17T10:58:22.965Z,10.50
2019-03-17T11:01:12.651Z,10.50
2019-03-17T11:04:02.376Z,10.60
2019-03-17T11:06:52.650Z,10.50
2019-03-17T11:09:42.555Z,10.40
2019-03-17T11:12:32.811Z,10.20
2019-03-17T11:15:22.429Z,9.90
2019-03-17T11:18:12.237Z,9.80
2019-03-17T11:21:02.336Z,9.90
2019-03-17T11:23:52.225Z,10.00
2019-03-17T11:26:42.302Z,10.00
2019-03-17T11:29:32.042Z,9.70
2019-03-17T11:32:21.585Z,9.50
2019-03-17T11:35:11.464Z,9.30
2019-03-17T11:38:01.432Z,9.40
2019-03-17T11:40:51.621Z,9.60
2019-03-17T11:43:41.406Z,10.00
2019-03-17T11:46:31.307Z,10.30
2019-03-17T11:49:21.145Z,10.50
2019-03-17T11:52:10.972Z,10.80
2019-03-17T11:55:00.933Z,10.80
2019-03-17T11:57:50.615Z,10.70
2019-03-17T12:00:40.199Z,10.40
2019-03-17T12:03:30.175Z,10.10
2019-03-17T12:06:20.036Z,9.70
2019-03-17T12:09:09.475Z,9.50
2019-03-17T12:11:59.411Z,9.20
2019-03-17T12:14:49.192Z,8.70
2019-03-17T12:17:38.854Z,8.70
2019-03-17T12:20:28.412Z,8.80
2019-03-17T12:23:18.095Z,8.80
2019-03-17T12:26:08.326Z,8.80
2019-03-17T12:28:58.075Z,8.60
2019-03-17T12:31:47.877Z,8.60
2019-03-17T12:34:37.726Z,8.60
2019-03-17T12:37:27.614Z,9.10
2019-03-17T12:40:17.697Z,9.60
2019-03-17T12:43:07.445Z,10.00
2019-03-17T12:45:57.363Z,10.50
2019-03-17T12:48:47.542Z,10.70
2019-03-17T12:51:37.557Z,10.80
2019-03-17T12:54:27.302Z,10.70
2019-03-17T12:57:17.195Z,10.20
2019-03-17T13:00:09.156Z,10.10
2019-03-17T13:02:58.945Z,10.10
2019-03-17T13:05:49.222Z,9.70
2019-03-17T13:08:38.986Z,9.50
2019-03-17T13:11:29.306Z,9.60
2019-03-17T13:14:19.239Z,9.80
2019-03-17T13:17:08.952Z,10.40
2019-03-17T13:19:58.832Z,10.80
2019-03-17T13:22:48.329Z,11.10
2019-03-17T13:25:38.064Z,10.50
2019-03-17T13:28:27.795Z,10.50
2019-03-17T13:31:17.055Z,11.00
2019-03-17T13:34:07.005Z,11.50
2019-03-17T13:36:56.896Z,11.60
2019-03-17T13:39:46.675Z,11.00
2019-03-17T13:42:36.185Z,10.60
2019-03-17T13:45:26.559Z,10.30
2019-03-17T13:48:16.132Z,10.20
2019-03-17T13:51:05.816Z,10.30
2019-03-17T13:53:55.383Z,10.60
2019-03-17T13:56:45.042Z,10.40
2019-03-17T13:59:34.734Z,10.30
2019-03-17T14:02:24.408Z,10.00
2019-03-17T14:05:14.655Z,9.70
2019-03-17T14:08:05.156Z,9.60
2019-03-17T14:10:54.885Z,9.80
2019-03-17T14:13:44.452Z,9.90
2019-03-17T14:16:34.358Z,10.20
2019-03-17T14:19:24.234Z,10.20
2019-03-17T14:22:13.782Z,10.30
2019-03-17T14:25:03.508Z,10.40
2019-03-17T14:27:53.022Z,10.30
2019-03-17T14:30:42.845Z,10.50
2019-03-17T14:33:33.093Z,10.60
2019-03-17T14:36:23.133Z,10.60
2019-03-17T14:39:13.117Z,10.40
2019-03-17T14:42:14.388Z,10.10
2019-03-17T14:45:04.393Z,10.20
2019-03-17T14:47:54.193Z,10.00
2019-03-17T14:50:43.983Z,10.10
2019-03-17T14:53:33.312Z,10.00
2019-03-17T14:56:23.116Z,10.00
2019-03-17T14:59:13.055Z,9.50
2019-03-17T15:02:02.816Z,9.20
2019-03-17T15:04:52.904Z,9.10
2019-03-17T15:07:42.875Z,9.20
2019-03-17T15:10:33.334Z,9.40
2019-03-17T15:13:23.653Z,9.40
2019-03-17T15:16:13.455Z,9.40
2019-03-17T15:19:03.330Z,9.30
2019-03-17T15:21:53.063Z,9.30
2019-03-17T15:24:43.058Z,9.10
2019-03-17T15:27:32.667Z,9.10
2019-03-17T15:30:23.615Z,9.20
2019-03-17T15:33:13.657Z,9.20
2019-03-17T15:36:03.315Z,9.00
2019-03-17T15:38:53.067Z,8.90
2019-03-17T15:41:42.856Z,8.90
2019-03-17T15:44:32.462Z,8.90
2019-03-17T15:47:22.423Z,8.90
2019-03-17T15:50:17.576Z,8.80
2019-03-17T15:53:07.207Z,8.80
2019-03-17T15:55:57.013Z,8.80
2019-03-17T15:58:47.097Z,8.70
2019-03-17T16:01:37.005Z,8.50
2019-03-17T16:04:27.875Z,8.20
2019-03-17T16:07:25.243Z,8.10
2019-03-17T16:10:16.157Z,8.00
2019-03-17T16:13:12.163Z,8.00
2019-03-17T16:16:02.254Z,8.10
2019-03-17T16:18:52.110Z,8.10
2019-03-17T16:21:41.692Z,8.20
2019-03-17T16:24:31.938Z,8.30
2019-03-17T16:27:21.494Z,8.30
2019-03-17T16:30:15.414Z,8.30
2019-03-17T16:33:05.553Z,8.20
2019-03-17T16:35:55.632Z,8.20
2019-03-17T16:38:45.731Z,8.20
2019-03-17T16:41:43.257Z,8.20
2019-03-17T16:44:26.501Z,8.20
2019-03-17T16:47:16.633Z,8.20
2019-03-17T16:50:07.802Z,8.10
2019-03-17T16:52:57.737Z,8.10
2019-03-17T16:55:47.734Z,8.20
2019-03-17T16:58:38.023Z,8.10
2019-03-17T17:01:28.335Z,8.10
2019-03-17T17:07:40.079Z,8.10
2019-03-17T17:10:49.780Z,8.10
2019-03-17T17:13:32.551Z,8.10
2019-03-17T17:16:22.405Z,8.00
2019-03-17T17:19:12.913Z,8.00
2019-03-17T17:22:03.039Z,7.90
2019-03-17T17:24:52.987Z,7.90
2019-03-17T17:27:42.870Z,7.90
2019-03-17T17:30:32.419Z,7.80
2019-03-17T17:33:22.034Z,7.80
2019-03-17T17:36:12.027Z,7.70
2019-03-17T17:39:01.959Z,7.60
2019-03-17T17:41:52.848Z,7.60
2019-03-17T17:44:42.992Z,7.60
2019-03-17T17:47:32.723Z,7.60
2019-03-17T17:50:22.882Z,7.50
2019-03-17T17:53:12.917Z,7.60
2019-03-17T17:56:02.895Z,7.60
2019-03-17T17:58:52.536Z,7.60
2019-03-17T18:01:42.327Z,7.60
2019-03-17T18:04:31.637Z,7.60
2019-03-17T18:07:24.345Z,7.50
2019-03-17T18:10:14.116Z,7.50
2019-03-17T18:13:04.623Z,7.40
2019-03-17T18:15:54.628Z,7.30
2019-03-17T18:18:44.405Z,7.30
2019-03-17T18:22:04.564Z,7.20
2019-03-17T18:24:54.135Z,7.20
2019-03-17T18:27:43.791Z,7.20
2019-03-17T18:30:33.733Z,7.20
2019-03-17T18:33:23.478Z,7.20
2019-03-17T18:36:13.471Z,7.20
2019-03-17T18:39:03.255Z,7.20
2019-03-17T18:41:53.024Z,7.10
2019-03-17T18:44:42.834Z,7.00
2019-03-17T18:47:32.623Z,7.10
2019-03-17T18:50:22.647Z,7.10
2019-03-17T18:53:12.675Z,7.00
2019-03-17T18:56:03.593Z,6.90
2019-03-17T18:58:53.484Z,6.90
2019-03-17T19:01:43.244Z,6.80
2019-03-17T19:04:32.966Z,6.80
2019-03-17T19:07:22.694Z,6.80
2019-03-17T19:10:12.824Z,6.70
2019-03-17T19:13:03.905Z,6.70
2019-03-17T19:15:53.861Z,6.90
2019-03-17T19:18:44.214Z,6.80
2019-03-17T19:21:33.772Z,6.80
2019-03-17T19:24:23.236Z,6.70
2019-03-17T19:27:13.036Z,6.70
2019-03-17T19:30:03.140Z,6.70
2019-03-17T19:32:52.895Z,6.90
2019-03-17T19:35:42.873Z,7.00
2019-03-17T19:38:32.562Z,6.90
2019-03-17T19:41:22.445Z,6.70
2019-03-17T19:44:12.207Z,6.60
2019-03-17T19:47:01.993Z,6.60
2019-03-17T19:49:51.905Z,6.70
2019-03-17T19:52:41.886Z,6.80
2019-03-17T19:55:31.542Z,6.80
2019-03-17T19:58:21.336Z,6.70
2019-03-17T20:01:11.593Z,6.70
2019-03-17T20:04:01.487Z,6.70
2019-03-17T20:06:51.142Z,6.60
2019-03-17T20:09:40.812Z,6.70
2019-03-17T20:12:30.525Z,6.70
2019-03-17T20:15:19.847Z,6.70
2019-03-17T20:18:10.006Z,6.80
2019-03-17T20:20:59.832Z,6.90
2019-03-17T20:23:49.681Z,6.90
2019-03-17T20:26:39.414Z,6.80
2019-03-17T20:29:29.200Z,7.00
2019-03-17T20:32:18.964Z,6.90
2019-03-17T20:35:09.292Z,6.90
2019-03-17T20:37:59.972Z,6.90
2019-03-17T20:40:50.155Z,6.90
2019-03-17T20:43:41.292Z,6.90
2019-03-17T20:46:31.432Z,6.90
2019-03-17T20:49:21.235Z,6.90
2019-03-17T20:52:10.791Z,7.00
2019-03-17T20:55:00.815Z,7.00
2019-03-17T20:57:50.473Z,7.00
2019-03-17T21:00:40.144Z,7.00
2019-03-17T21:03:30.334Z,7.00
2019-03-17T21:06:20.455Z,6.90
2019-03-17T21:09:10.402Z,7.00
2019-03-17T21:12:00.371Z,7.10
2019-03-17T21:14:50.245Z,7.00
2019-03-17T21:17:39.987Z,7.10
2019-03-17T21:20:29.631Z,7.00
2019-03-17T21:23:19.673Z,7.00
2019-03-17T21:26:09.315Z,7.00
2019-03-17T21:28:59.405Z,7.00
2019-03-17T21:31:49.418Z,6.90
2019-03-17T21:34:39.214Z,6.90
2019-03-17T21:37:29.056Z,6.80
2019-03-17T21:40:19.195Z,6.70
2019-03-17T21:43:09.011Z,6.70
2019-03-17T21:45:58.856Z,6.60
2019-03-17T21:48:48.755Z,6.50
2019-03-17T21:51:38.483Z,6.40
2019-03-17T21:54:29.362Z,6.30
2019-03-17T21:57:19.098Z,6.30
2019-03-17T22:00:10.475Z,6.30
2019-03-17T22:02:59.910Z,6.20
2019-03-17T22:05:49.771Z,6.00
2019-03-17T22:08:42.958Z,5.90
2019-03-17T22:11:32.531Z,5.90
2019-03-17T22:14:22.416Z,5.20
2019-03-17T22:17:12.375Z,4.50
2019-03-17T22:20:01.714Z,4.50
2019-03-17T22:22:52.406Z,4.40
2019-03-17T22:25:42.612Z,4.40
2019-03-17T22:28:32.628Z,4.60
2019-03-17T22:31:22.305Z,4.70
2019-03-17T22:34:13.003Z,4.70
2019-03-17T22:37:21.525Z,4.80
2019-03-17T22:40:12.424Z,5.00
2019-03-17T22:43:02.345Z,5.00
2019-03-17T22:45:52.024Z,5.00
2019-03-17T22:48:41.875Z,5.10
2019-03-17T22:51:31.763Z,5.10
2019-03-17T22:54:21.432Z,5.20
2019-03-17T22:57:11.329Z,5.20
2019-03-17T23:00:00.962Z,5.20
2019-03-17T23:02:52.337Z,5.30
2019-03-17T23:05:41.989Z,5.40
2019-03-17T23:08:33.015Z,5.40
2019-03-17T23:11:22.749Z,5.40
2019-03-17T23:14:12.816Z,5.50
2019-03-17T23:17:02.912Z,5.50
2019-03-17T23:19:52.764Z,5.50
2019-03-17T23:22:43.003Z,5.60
2019-03-17T23:25:32.607Z,5.60
2019-03-17T23:28:21.975Z,5.60
2019-03-17T23:31:12.123Z,5.70
2019-03-17T23:34:01.744Z,5.70
2019-03-17T23:36:51.476Z,5.70
2019-03-17T23:39:41.517Z,5.80
2019-03-17T23:42:31.442Z,5.80
2019-03-17T23:45:22.092Z,5.80
2019-03-17T23:48:12.016Z,5.90
2019-03-17T23:51:02.050Z,6.00
2019-03-17T23:53:52.136Z,6.00
2019-03-17T23:56:42.223Z,6.00
2019-03-17T23:59:32.183Z,6.10
